Time;durP1;ratioP1;P1;durP2;ratioP2;P2;SDS_P1;SDS_P2;PMS_P1;PMS_P2;Temp;Humidity;BMP_temperature;BMP_pressure;BME280_temperature;BME280_humidity;BME280_pressure;Samples;Min_cycle;Max_cycle;Signal;HPM_P1;HPM_P2
2021/08/10 00:02:12;;;;;;;6.57;3.80;;;;;;;;;;5094638;28;20439;-72
2021/08/10 00:04:39;;;;;;;7.97;4.13;;;;;;;;;;5093685;28;20512;-73
2021/08/10 00:07:06;;;;;;;7.07;4.30;;;;;;;;;;5094177;28;20451;-73
2021/08/10 00:09:33;;;;;;;10.40;4.43;;;;;;;;;;5093928;28;20440;-73
2021/08/10 00:12:02;;;;;;;7.23;4.70;;;;;;;;;;5093777;28;20440;-72
2021/08/10 00:14:29;;;;;;;5.30;4.30;;;;;;;;;;5093873;28;20446;-72
2021/08/10 00:16:56;;;;;;;4.07;3.70;;;;;;;;;;5093964;28;20535;-73
2021/08/10 00:19:23;;;;;;;4.30;4.00;;;;;;;;;;5093599;28;20443;-71
2021/08/10 00:21:50;;;;;;;6.70;4.10;;;;;;;;;;5093880;28;20439;-72
2021/08/10 00:24:17;;;;;;;7.27;4.57;;;;;;;;;;5093422;28;20495;-71
2021/08/10 00:26:45;;;;;;;6.37;4.33;;;;;;;;;;5093606;28;20446;-72
2021/08/10 00:29:13;;;;;;;5.50;3.70;;;;;;;;;;5092971;28;20448;-72
2021/08/10 00:31:40;;;;;;;5.90;3.50;;;;;;;;;;5093985;28;20432;-72
2021/08/10 00:34:07;;;;;;;4.27;3.87;;;;;;;;;;5093750;28;20454;-73
2021/08/10 00:36:35;;;;;;;5.53;3.80;;;;;;;;;;5093999;28;20450;-72
2021/08/10 00:39:02;;;;;;;4.60;4.17;;;;;;;;;;5093899;28;20462;-72
2021/08/10 00:41:30;;;;;;;12.73;4.53;;;;;;;;;;5093413;28;20446;-72
2021/08/10 00:43:58;;;;;;;4.63;3.33;;;;;;;;;;5093523;28;20481;-72
2021/08/10 00:46:26;;;;;;;6.60;4.20;;;;;;;;;;5093471;28;20444;-72
2021/08/10 00:48:53;;;;;;;7.90;4.17;;;;;;;;;;5093708;28;20436;-72
2021/08/10 00:51:21;;;;;;;6.17;3.97;;;;;;;;;;5093755;28;20528;-72
2021/08/10 00:53:48;;;;;;;8.67;4.80;;;;;;;;;;5093591;28;20542;-72
2021/08/10 00:56:15;;;;;;;5.33;4.33;;;;;;;;;;5093564;28;20447;-72
2021/08/10 00:58:42;;;;;;;4.73;4.23;;;;;;;;;;5093888;28;20447;-72
2021/08/10 01:01:10;;;;;;;5.57;4.33;;;;;;;;;;5093627;28;20442;-72
2021/08/10 01:03:38;;;;;;;8.37;4.60;;;;;;;;;;5093425;28;20480;-71
2021/08/10 01:06:08;;;;;;;5.53;3.97;;;;;;;;;;5093571;28;20438;-72
2021/08/10 01:08:40;;;;;;;4.83;4.07;;;;;;;;;;5093426;28;20438;-72
2021/08/10 01:11:10;;;;;;;6.87;4.20;;;;;;;;;;5093350;28;20427;-72
2021/08/10 01:13:39;;;;;;;4.07;3.67;;;;;;;;;;5093499;28;20425;-72
2021/08/10 01:16:14;;;;;;;10.23;4.13;;;;;;;;;;5093593;28;20946;-72
2021/08/10 01:18:48;;;;;;;6.67;3.63;;;;;;;;;;5093487;28;20436;-72
2021/08/10 01:21:19;;;;;;;8.80;4.10;;;;;;;;;;5093540;28;20450;-72
2021/08/10 01:23:47;;;;;;;5.40;3.97;;;;;;;;;;5093216;28;20492;-72
2021/08/10 01:26:18;;;;;;;7.47;4.27;;;;;;;;;;5093464;28;20475;-72
2021/08/10 01:28:52;;;;;;;7.63;4.67;;;;;;;;;;5093437;28;20439;-71
2021/08/10 01:31:27;;;;;;;4.80;4.30;;;;;;;;;;5093438;28;20436;-71
2021/08/10 01:33:57;;;;;;;7.40;4.90;;;;;;;;;;5093532;28;20447;-72
2021/08/10 01:36:24;;;;;;;5.20;3.30;;;;;;;;;;5092822;28;20473;-71
2021/08/10 01:38:54;;;;;;;6.00;4.67;;;;;;;;;;5093754;28;20437;-71
2021/08/10 01:41:21;;;;;;;5.47;4.60;;;;;;;;;;5095349;28;20526;-71
2021/08/10 01:43:49;;;;;;;4.90;4.40;;;;;;;;;;5096732;28;20523;-71
2021/08/10 01:46:16;;;;;;;4.80;4.03;;;;;;;;;;5096491;28;20456;-72
2021/08/10 01:48:45;;;;;;;6.00;5.23;;;;;;;;;;5096445;28;20441;-71
2021/08/10 01:51:12;;;;;;;6.30;3.90;;;;;;;;;;5096760;28;20544;-72
2021/08/10 01:53:40;;;;;;;6.57;5.07;;;;;;;;;;5096475;28;20443;-71
2021/08/10 01:56:07;;;;;;;8.03;4.20;;;;;;;;;;5096571;28;20448;-71
2021/08/10 01:58:37;;;;;;;7.70;4.23;;;;;;;;;;5096549;28;20523;-71
2021/08/10 02:01:04;;;;;;;6.63;4.30;;;;;;;;;;5096629;28;20811;-71
2021/08/10 02:03:32;;;;;;;6.83;4.93;;;;;;;;;;5096543;28;20532;-71
2021/08/10 02:06:00;;;;;;;8.70;4.30;;;;;;;;;;5096371;28;20437;-71
2021/08/10 02:08:29;;;;;;;4.57;3.90;;;;;;;;;;5096386;28;20439;-72
2021/08/10 02:10:56;;;;;;;7.27;4.93;;;;;;;;;;5096320;28;20444;-71
2021/08/10 02:13:23;;;;;;;6.00;4.60;;;;;;;;;;5096262;28;20504;-71
2021/08/10 02:15:51;;;;;;;5.07;4.57;;;;;;;;;;5096518;28;20451;-72
2021/08/10 02:18:19;;;;;;;6.87;4.83;;;;;;;;;;5096313;28;20795;-72
2021/08/10 02:20:48;;;;;;;5.37;4.67;;;;;;;;;;5096138;28;20494;-72
2021/08/10 02:23:19;;;;;;;7.90;5.27;;;;;;;;;;5095819;28;20518;-72
2021/08/10 02:25:48;;;;;;;9.63;5.03;;;;;;;;;;5096023;28;20468;-72
2021/08/10 02:28:16;;;;;;;8.20;5.00;;;;;;;;;;5096036;28;20782;-72
2021/08/10 02:30:49;;;;;;;7.63;5.67;;;;;;;;;;5095626;28;20445;-72
2021/08/10 02:33:16;;;;;;;7.67;5.60;;;;;;;;;;5095634;28;20435;-73
2021/08/10 02:35:44;;;;;;;5.07;4.43;;;;;;;;;;5095861;28;20450;-71
2021/08/10 02:38:14;;;;;;;7.57;5.73;;;;;;;;;;5095774;28;20444;-71
2021/08/10 02:40:46;;;;;;;6.70;4.30;;;;;;;;;;5095939;28;20756;-72
2021/08/10 02:43:15;;;;;;;5.03;4.40;;;;;;;;;;5096578;28;20436;-72
2021/08/10 02:45:42;;;;;;;6.87;5.00;;;;;;;;;;5095296;28;20521;-71
2021/08/10 02:48:10;;;;;;;9.33;5.30;;;;;;;;;;5095611;28;20442;-71
2021/08/10 02:50:37;;;;;;;6.30;5.37;;;;;;;;;;5095255;28;20436;-71
2021/08/10 02:53:04;;;;;;;7.07;4.90;;;;;;;;;;5094661;28;20438;-71
2021/08/10 02:55:34;;;;;;;6.30;5.07;;;;;;;;;;5095494;28;20449;-71
2021/08/10 02:58:06;;;;;;;6.67;4.87;;;;;;;;;;5095365;28;20434;-71
2021/08/10 03:00:36;;;;;;;6.23;4.70;;;;;;;;;;5095103;28;20432;-71
2021/08/10 03:03:07;;;;;;;10.00;5.10;;;;;;;;;;5095579;28;20428;-72
2021/08/10 03:05:34;;;;;;;9.23;5.20;;;;;;;;;;5095838;28;20469;-72
2021/08/10 03:08:02;;;;;;;6.50;4.93;;;;;;;;;;5094829;28;20444;-73
2021/08/10 03:10:31;;;;;;;7.10;4.87;;;;;;;;;;5094801;28;20934;-73
2021/08/10 03:12:59;;;;;;;8.90;4.70;;;;;;;;;;5095188;28;20446;-73
2021/08/10 03:15:29;;;;;;;5.20;4.70;;;;;;;;;;5094908;28;20447;-74
2021/08/10 03:17:58;;;;;;;9.03;5.33;;;;;;;;;;5094662;28;20437;-74
2021/08/10 03:20:25;;;;;;;7.63;4.77;;;;;;;;;;5094966;28;20446;-73
2021/08/10 03:22:54;;;;;;;8.27;5.40;;;;;;;;;;5094793;28;21010;-70
2021/08/10 03:25:22;;;;;;;7.63;6.80;;;;;;;;;;5094516;28;20466;-73
2021/08/10 03:27:50;;;;;;;7.30;5.60;;;;;;;;;;5094571;28;20806;-73
2021/08/10 03:30:18;;;;;;;9.53;5.90;;;;;;;;;;5094455;28;20454;-73
2021/08/10 03:32:47;;;;;;;8.77;5.87;;;;;;;;;;5094438;28;20504;-71
2021/08/10 03:35:14;;;;;;;9.40;5.57;;;;;;;;;;5094852;28;20781;-71
2021/08/10 03:37:42;;;;;;;8.20;6.20;;;;;;;;;;5094688;28;20795;-73
2021/08/10 03:40:10;;;;;;;9.13;6.47;;;;;;;;;;5094745;28;20536;-72
2021/08/10 03:42:37;;;;;;;8.40;5.70;;;;;;;;;;5094543;28;20800;-71
2021/08/10 03:45:05;;;;;;;11.40;5.80;;;;;;;;;;5094424;28;20486;-70
2021/08/10 03:47:33;;;;;;;10.40;5.50;;;;;;;;;;5094963;28;20437;-70
2021/08/10 03:50:02;;;;;;;6.37;5.43;;;;;;;;;;5094521;28;20527;-72
2021/08/10 03:52:29;;;;;;;10.40;5.67;;;;;;;;;;5094016;28;20529;-71
2021/08/10 03:54:57;;;;;;;7.20;5.60;;;;;;;;;;5093943;28;20455;-70
2021/08/10 03:57:24;;;;;;;12.80;6.33;;;;;;;;;;5093936;28;20435;-72
2021/08/10 03:59:54;;;;;;;5.67;4.70;;;;;;;;;;5094232;28;20493;-71
2021/08/10 04:02:22;;;;;;;6.13;5.13;;;;;;;;;;5094052;28;20424;-72
2021/08/10 04:04:52;;;;;;;7.03;5.00;;;;;;;;;;5093739;28;20486;-72
2021/08/10 04:07:21;;;;;;;6.10;4.57;;;;;;;;;;5094976;28;20430;-72
2021/08/10 04:09:49;;;;;;;7.73;5.30;;;;;;;;;;5094059;28;20446;-74
2021/08/10 04:12:16;;;;;;;5.20;4.47;;;;;;;;;;5094201;28;20443;-73
2021/08/10 04:14:44;;;;;;;5.90;5.40;;;;;;;;;;5094138;28;20531;-72
2021/08/10 04:17:11;;;;;;;5.53;4.20;;;;;;;;;;5094144;28;20817;-75
2021/08/10 04:19:45;;;;;;;5.73;3.87;;;;;;;;;;5093901;28;20518;-74
2021/08/10 04:22:12;;;;;;;6.00;4.23;;;;;;;;;;5093821;28;20911;-75
2021/08/10 04:24:41;;;;;;;6.00;4.53;;;;;;;;;;5093926;28;20542;-76
2021/08/10 04:27:08;;;;;;;5.57;4.10;;;;;;;;;;5093595;28;20444;-77
2021/08/10 04:29:36;;;;;;;5.40;4.17;;;;;;;;;;5096626;28;20476;-77
2021/08/10 04:32:03;;;;;;;5.70;4.37;;;;;;;;;;5105060;28;20469;-76
2021/08/10 04:34:30;;;;;;;5.30;3.97;;;;;;;;;;5114644;28;20468;-75
2021/08/10 04:36:57;;;;;;;7.00;4.80;;;;;;;;;;5113534;28;20914;-76
2021/08/10 04:39:26;;;;;;;4.90;4.33;;;;;;;;;;5113922;28;20949;-76
2021/08/10 04:41:55;;;;;;;9.20;4.87;;;;;;;;;;5113721;28;20479;-76
2021/08/10 04:44:22;;;;;;;8.80;4.90;;;;;;;;;;5113851;28;20986;-76
2021/08/10 04:46:49;;;;;;;6.47;5.17;;;;;;;;;;5114025;28;20448;-76
2021/08/10 04:49:17;;;;;;;5.60;4.97;;;;;;;;;;5113962;28;20445;-77
2021/08/10 04:51:44;;;;;;;5.70;5.10;;;;;;;;;;5113919;28;20451;-75
2021/08/10 04:54:12;;;;;;;6.37;4.57;;;;;;;;;;5115144;28;20526;-76
2021/08/10 04:56:39;;;;;;;5.77;4.90;;;;;;;;;;5113582;28;20936;-77
2021/08/10 04:59:08;;;;;;;8.27;5.00;;;;;;;;;;5106153;28;20444;-78
2021/08/10 05:01:35;;;;;;;5.30;4.80;;;;;;;;;;5100723;28;20502;-76
2021/08/10 05:04:02;;;;;;;9.37;5.23;;;;;;;;;;5096895;28;20534;-77
2021/08/10 05:06:30;;;;;;;6.63;4.67;;;;;;;;;;5113289;28;20991;-77
2021/08/10 05:08:57;;;;;;;5.40;4.53;;;;;;;;;;5113719;28;20531;-77
2021/08/10 05:11:24;;;;;;;5.10;4.60;;;;;;;;;;5113831;28;20772;-77
2021/08/10 05:13:51;;;;;;;6.40;5.07;;;;;;;;;;5114102;28;20446;-77
2021/08/10 05:16:20;;;;;;;8.33;5.23;;;;;;;;;;5116622;28;20969;-77
2021/08/10 05:18:49;;;;;;;6.43;4.50;;;;;;;;;;5117326;28;20448;-76
2021/08/10 05:21:16;;;;;;;14.27;4.83;;;;;;;;;;5117741;28;20438;-77
2021/08/10 05:23:44;;;;;;;9.17;5.40;;;;;;;;;;5117311;28;20573;-70
2021/08/10 05:26:11;;;;;;;12.90;5.70;;;;;;;;;;5117875;28;20487;-76
2021/08/10 05:28:38;;;;;;;7.73;5.37;;;;;;;;;;5117740;28;20444;-83
2021/08/10 05:31:05;;;;;;;8.33;5.30;;;;;;;;;;5117452;28;20447;-81
2021/08/10 05:33:34;;;;;;;14.50;5.33;;;;;;;;;;5117446;28;20535;-83
2021/08/10 05:36:01;;;;;;;9.30;4.93;;;;;;;;;;5117432;28;20947;-83
2021/08/10 05:38:28;;;;;;;11.23;5.27;;;;;;;;;;5117361;28;20466;-82
2021/08/10 05:40:55;;;;;;;6.70;5.27;;;;;;;;;;5117625;28;20436;-83
2021/08/10 05:43:22;;;;;;;5.73;4.83;;;;;;;;;;5117607;28;20443;-83
2021/08/10 05:45:50;;;;;;;7.90;5.13;;;;;;;;;;5116788;28;20487;-84
2021/08/10 05:48:17;;;;;;;10.40;5.77;;;;;;;;;;5117161;28;20437;-83
2021/08/10 05:50:46;;;;;;;7.73;5.60;;;;;;;;;;5117157;28;20441;-83
2021/08/10 05:53:13;;;;;;;9.10;5.83;;;;;;;;;;5117032;28;20492;-83
2021/08/10 05:55:40;;;;;;;7.37;6.00;;;;;;;;;;5116816;28;20933;-83
2021/08/10 05:58:08;;;;;;;8.00;5.30;;;;;;;;;;5117336;28;20788;-82
2021/08/10 06:00:35;;;;;;;10.33;6.40;;;;;;;;;;5117423;28;20438;-83
2021/08/10 06:03:02;;;;;;;8.63;6.40;;;;;;;;;;5116635;28;20525;-83
2021/08/10 06:05:29;;;;;;;10.23;5.50;;;;;;;;;;5116419;28;20541;-83
2021/08/10 06:07:58;;;;;;;11.23;5.23;;;;;;;;;;5116520;28;20447;-82
2021/08/10 06:10:25;;;;;;;7.00;5.57;;;;;;;;;;5116784;28;20478;-88
2021/08/10 06:12:52;;;;;;;7.20;5.40;;;;;;;;;;5116702;28;20445;-83
2021/08/10 06:15:19;;;;;;;7.83;6.30;;;;;;;;;;5116362;28;20644;-84
2021/08/10 06:17:47;;;;;;;7.37;5.50;;;;;;;;;;5116703;28;20475;-83
2021/08/10 06:20:14;;;;;;;8.20;5.30;;;;;;;;;;5116606;28;20446;-82
2021/08/10 06:22:41;;;;;;;8.97;5.23;;;;;;;;;;5116584;28;20781;-82
2021/08/10 06:25:10;;;;;;;8.33;6.17;;;;;;;;;;5116953;28;20471;-83
2021/08/10 06:27:38;;;;;;;8.40;5.33;;;;;;;;;;5115016;28;20442;-82
2021/08/10 06:30:05;;;;;;;9.77;6.07;;;;;;;;;;5116141;28;20449;-83
2021/08/10 06:32:33;;;;;;;8.50;6.00;;;;;;;;;;5116098;28;20925;-82
2021/08/10 06:35:00;;;;;;;9.80;6.90;;;;;;;;;;5116697;28;20431;-81
2021/08/10 06:37:27;;;;;;;8.83;6.20;;;;;;;;;;5116137;28;20941;-83
2021/08/10 06:39:54;;;;;;;9.20;6.40;;;;;;;;;;5117561;28;20539;-81
2021/08/10 06:42:23;;;;;;;11.20;5.80;;;;;;;;;;5116679;28;20439;-84
2021/08/10 06:44:50;;;;;;;9.10;5.20;;;;;;;;;;5116225;28;20443;-82
2021/08/10 06:47:17;;;;;;;7.60;6.40;;;;;;;;;;5117067;28;20480;-83
2021/08/10 06:49:45;;;;;;;8.67;6.20;;;;;;;;;;5116013;28;20854;-82
2021/08/10 06:52:12;;;;;;;11.07;7.03;;;;;;;;;;5116010;28;20446;-82
2021/08/10 06:54:39;;;;;;;9.17;5.83;;;;;;;;;;5116591;28;20441;-82
2021/08/10 06:57:07;;;;;;;10.77;5.50;;;;;;;;;;5116771;28;20448;-85
2021/08/10 06:59:36;;;;;;;10.60;5.27;;;;;;;;;;5115490;28;20511;-83
2021/08/10 07:02:03;;;;;;;7.30;4.90;;;;;;;;;;5115726;28;20439;-76
2021/08/10 07:04:30;;;;;;;7.20;4.83;;;;;;;;;;5116184;28;20447;-83
2021/08/10 07:06:58;;;;;;;6.53;4.27;;;;;;;;;;5116060;28;20575;-83
2021/08/10 07:09:25;;;;;;;8.17;4.87;;;;;;;;;;5115508;28;20444;-82
2021/08/10 07:11:52;;;;;;;7.00;5.03;;;;;;;;;;5115718;28;20440;-82
2021/08/10 07:14:19;;;;;;;7.43;5.57;;;;;;;;;;5115216;28;20440;-80
2021/08/10 07:16:48;;;;;;;6.90;4.80;;;;;;;;;;5115560;28;20454;-84
2021/08/10 07:19:15;;;;;;;7.80;4.97;;;;;;;;;;5115808;28;20446;-80
2021/08/10 07:21:43;;;;;;;5.73;4.70;;;;;;;;;;5116158;28;20440;-86
2021/08/10 07:24:10;;;;;;;5.83;4.60;;;;;;;;;;5115979;28;20463;-80
2021/08/10 07:26:37;;;;;;;7.00;5.87;;;;;;;;;;5114900;28;20479;-75
2021/08/10 07:29:04;;;;;;;5.80;4.43;;;;;;;;;;5115285;28;20933;-79
2021/08/10 07:31:32;;;;;;;7.13;4.40;;;;;;;;;;5115076;28;20443;-84
2021/08/10 07:34:00;;;;;;;7.53;5.20;;;;;;;;;;5115784;28;20848;-84
2021/08/10 07:36:27;;;;;;;5.80;4.97;;;;;;;;;;5115392;28;20447;-84
2021/08/10 07:38:55;;;;;;;7.93;5.40;;;;;;;;;;5115338;28;20439;-78
2021/08/10 07:41:22;;;;;;;6.10;4.30;;;;;;;;;;5114932;28;20557;-85
2021/08/10 07:43:49;;;;;;;11.43;5.37;;;;;;;;;;5115216;28;20439;-84
2021/08/10 07:46:16;;;;;;;5.57;4.50;;;;;;;;;;5116446;28;20978;-84
2021/08/10 07:48:43;;;;;;;6.93;4.43;;;;;;;;;;5115676;28;20440;-81
2021/08/10 07:51:12;;;;;;;7.77;5.23;;;;;;;;;;5114859;28;20445;-83
2021/08/10 07:53:39;;;;;;;8.80;5.57;;;;;;;;;;5115318;28;20568;-83
2021/08/10 07:56:07;;;;;;;7.20;4.60;;;;;;;;;;5114725;28;20447;-84
2021/08/10 07:58:34;;;;;;;6.83;5.20;;;;;;;;;;5115178;28;20435;-86
2021/08/10 08:01:02;;;;;;;8.13;5.57;;;;;;;;;;5115015;28;20448;-84
2021/08/10 08:03:29;;;;;;;5.23;3.43;;;;;;;;;;5114712;28;20500;-79
2021/08/10 08:05:56;;;;;;;11.10;5.20;;;;;;;;;;5114930;28;20549;-83
2021/08/10 08:08:25;;;;;;;8.33;4.93;;;;;;;;;;5114971;28;20522;-86
2021/08/10 08:10:52;;;;;;;7.03;4.27;;;;;;;;;;5115008;28;20434;-75
2021/08/10 08:13:20;;;;;;;10.57;6.03;;;;;;;;;;5114563;28;20536;-84
2021/08/10 08:15:48;;;;;;;7.17;5.20;;;;;;;;;;5114656;28;20838;-77
2021/08/10 08:18:15;;;;;;;9.90;5.27;;;;;;;;;;5114434;28;20440;-83
2021/08/10 08:20:42;;;;;;;7.80;5.10;;;;;;;;;;5114638;28;20439;-83
2021/08/10 08:23:09;;;;;;;9.70;4.80;;;;;;;;;;5114605;28;20471;-84
2021/08/10 08:25:38;;;;;;;6.77;4.53;;;;;;;;;;5115729;28;20776;-85
2021/08/10 08:28:08;;;;;;;4.00;3.60;;;;;;;;;;5114848;28;20802;-81
2021/08/10 08:30:38;;;;;;;6.20;4.53;;;;;;;;;;5114304;28;20436;-86
2021/08/10 08:33:05;;;;;;;4.53;3.90;;;;;;;;;;5114904;28;20874;-85
2021/08/10 08:35:32;;;;;;;6.40;4.67;;;;;;;;;;5115166;28;20793;-79
2021/08/10 08:38:00;;;;;;;5.17;3.97;;;;;;;;;;5116378;28;20793;-82
2021/08/10 08:40:27;;;;;;;4.53;3.97;;;;;;;;;;5114117;28;20442;-84
2021/08/10 08:42:56;;;;;;;5.20;3.23;;;;;;;;;;5114010;28;20432;-82
2021/08/10 08:45:23;;;;;;;6.03;4.27;;;;;;;;;;5114356;28;20439;-86
2021/08/10 08:47:51;;;;;;;5.77;4.07;;;;;;;;;;5114290;28;20475;-82
2021/08/10 08:50:18;;;;;;;5.43;4.20;;;;;;;;;;5113362;28;20440;-86
2021/08/10 08:52:47;;;;;;;5.80;3.80;;;;;;;;;;5114821;28;20440;-85
2021/08/10 08:55:16;;;;;;;5.30;3.73;;;;;;;;;;5114511;28;20927;-79
2021/08/10 08:57:43;;;;;;;4.87;4.00;;;;;;;;;;5115695;28;20453;-81
2021/08/10 09:00:14;;;;;;;4.60;4.20;;;;;;;;;;5114285;28;20450;-82
2021/08/10 09:02:43;;;;;;;5.30;4.27;;;;;;;;;;5116185;28;20433;-79
2021/08/10 09:05:11;;;;;;;7.43;4.40;;;;;;;;;;5114807;28;20445;-85
2021/08/10 09:07:38;;;;;;;6.63;5.03;;;;;;;;;;5113734;28;20971;-81
2021/08/10 09:10:07;;;;;;;8.10;5.50;;;;;;;;;;5114747;28;20441;-85
2021/08/10 09:12:42;;;;;;;8.00;4.53;;;;;;;;;;5115065;28;20546;-81
2021/08/10 09:15:10;;;;;;;6.57;4.73;;;;;;;;;;5113893;28;20503;-75
2021/08/10 09:17:46;;;;;;;6.90;4.67;;;;;;;;;;5114183;28;20448;-79
2021/08/10 09:20:19;;;;;;;5.57;5.07;;;;;;;;;;5115534;28;20859;-84
2021/08/10 09:22:46;;;;;;;7.67;4.50;;;;;;;;;;5113718;28;20905;-80
2021/08/10 09:25:14;;;;;;;5.90;4.90;;;;;;;;;;5113670;28;20935;-85
2021/08/10 09:27:42;;;;;;;6.20;5.07;;;;;;;;;;5114337;28;20479;-84
2021/08/10 09:30:10;;;;;;;6.00;5.40;;;;;;;;;;5114688;28;20771;-79
2021/08/10 09:32:54;;;;;;;11.03;7.53;;;;;;;;;;5114945;28;20941;-86
2021/08/10 09:35:22;;;;;;;6.70;5.67;;;;;;;;;;5115196;28;20433;-83
2021/08/10 09:38:04;;;;;;;7.00;4.57;;;;;;;;;;5114908;28;20496;-73
2021/08/10 09:40:32;;;;;;;9.03;5.27;;;;;;;;;;5113804;28;20425;-86
2021/08/10 09:43:14;;;;;;;7.03;5.53;;;;;;;;;;5114026;28;20449;-85
2021/08/10 09:45:41;;;;;;;8.97;4.83;;;;;;;;;;5114069;28;20461;-88
2021/08/10 09:48:15;;;;;;;7.60;5.00;;;;;;;;;;5114516;28;20580;-79
2021/08/10 09:50:42;;;;;;;5.30;4.80;;;;;;;;;;5114188;28;20429;-78
2021/08/10 09:53:16;;;;;;;6.57;4.20;;;;;;;;;;5114492;28;20444;-82
2021/08/10 09:55:53;;;;;;;5.63;4.80;;;;;;;;;;5114413;28;20475;-83
2021/08/10 09:58:20;;;;;;;6.90;5.00;;;;;;;;;;5113593;28;20931;-81
2021/08/10 10:00:49;;;;;;;5.83;4.83;;;;;;;;;;5113288;28;20447;-83
2021/08/10 10:03:18;;;;;;;6.73;4.33;;;;;;;;;;5117323;28;20818;-83
2021/08/10 10:05:46;;;;;;;5.87;4.33;;;;;;;;;;5117713;28;20440;-79
2021/08/10 10:08:16;;;;;;;5.13;4.63;;;;;;;;;;5117590;28;20476;-77
2021/08/10 10:10:44;;;;;;;7.93;5.13;;;;;;;;;;5118412;28;20432;-81
2021/08/10 10:13:13;;;;;;;5.27;4.20;;;;;;;;;;5117853;28;20959;-82
2021/08/10 10:15:40;;;;;;;5.60;4.50;;;;;;;;;;5117459;28;20535;-83
2021/08/10 10:18:08;;;;;;;8.67;4.90;;;;;;;;;;5117317;28;20528;-79
2021/08/10 10:20:37;;;;;;;7.30;5.57;;;;;;;;;;5117302;28;20606;-83
2021/08/10 10:23:05;;;;;;;7.00;5.97;;;;;;;;;;5117559;28;20460;-83
2021/08/10 10:25:33;;;;;;;7.57;4.87;;;;;;;;;;5117852;28;20429;-82
2021/08/10 10:28:00;;;;;;;6.20;5.30;;;;;;;;;;5118841;28;20506;-83
2021/08/10 10:30:28;;;;;;;6.73;5.37;;;;;;;;;;5118525;28;20440;-86
2021/08/10 10:32:55;;;;;;;6.27;5.30;;;;;;;;;;5117401;28;20436;-85
2021/08/10 10:35:23;;;;;;;5.60;5.00;;;;;;;;;;5118026;28;20438;-85
2021/08/10 10:37:53;;;;;;;8.47;5.20;;;;;;;;;;5117432;28;20445;-83
2021/08/10 10:40:21;;;;;;;5.63;4.70;;;;;;;;;;5117717;28;20484;-80
2021/08/10 10:42:49;;;;;;;6.83;5.17;;;;;;;;;;5116918;28;20441;-79
2021/08/10 10:45:33;;;;;;;9.00;4.80;;;;;;;;;;5117146;28;20486;-80
2021/08/10 10:48:00;;;;;;;5.23;4.73;;;;;;;;;;5117797;28;20482;-84
2021/08/10 10:50:27;;;;;;;8.40;4.67;;;;;;;;;;5117627;28;20463;-84
2021/08/10 10:53:04;;;;;;;7.37;4.47;;;;;;;;;;5116870;28;20540;-83
2021/08/10 10:55:35;;;;;;;5.70;4.00;;;;;;;;;;5116438;28;20421;-82
2021/08/10 10:58:02;;;;;;;5.70;4.90;;;;;;;;;;5116322;28;20945;-85
2021/08/10 11:00:31;;;;;;;11.47;5.87;;;;;;;;;;5116108;28;20527;-84
2021/08/10 11:03:12;;;;;;;6.93;5.30;;;;;;;;;;5115764;28;20450;-78
2021/08/10 11:05:39;;;;;;;6.33;4.87;;;;;;;;;;5116356;28;20476;-83
2021/08/10 11:08:28;;;;;;;6.33;4.20;;;;;;;;;;5116279;28;20499;-79
2021/08/10 11:10:55;;;;;;;5.83;4.10;;;;;;;;;;5116879;28;20445;-82
2021/08/10 11:13:36;;;;;;;6.00;5.43;;;;;;;;;;5115662;28;20440;-84
2021/08/10 11:16:03;;;;;;;6.77;5.13;;;;;;;;;;5117064;28;20446;-84
2021/08/10 11:18:30;;;;;;;7.10;5.03;;;;;;;;;;5116289;28;20450;-83
2021/08/10 11:21:16;;;;;;;6.43;4.40;;;;;;;;;;5115436;28;20444;-81
2021/08/10 11:23:45;;;;;;;5.20;4.70;;;;;;;;;;5115952;28;20472;-76
2021/08/10 11:26:31;;;;;;;6.90;4.50;;;;;;;;;;5115977;28;20461;-84
2021/08/10 11:28:58;;;;;;;5.20;4.70;;;;;;;;;;5116094;28;20439;-77
2021/08/10 11:31:32;;;;;;;5.17;4.67;;;;;;;;;;5115540;28;20469;-83
2021/08/10 11:33:59;;;;;;;5.93;4.43;;;;;;;;;;5115566;28;20943;-78
2021/08/10 11:36:29;;;;;;;6.50;5.53;;;;;;;;;;5116655;28;20435;-85
2021/08/10 11:39:08;;;;;;;5.20;4.70;;;;;;;;;;5115331;28;20464;-85
2021/08/10 11:41:36;;;;;;;5.50;4.87;;;;;;;;;;5115885;28;20438;-81
2021/08/10 11:44:04;;;;;;;5.63;5.07;;;;;;;;;;5116117;28;20443;-82
2021/08/10 11:46:32;;;;;;;6.10;4.80;;;;;;;;;;5116176;28;20445;-81
2021/08/10 11:49:00;;;;;;;6.20;5.60;;;;;;;;;;5116448;28;20566;-81
2021/08/10 11:51:28;;;;;;;8.53;5.10;;;;;;;;;;5115539;28;20506;-83
2021/08/10 11:53:55;;;;;;;5.90;4.70;;;;;;;;;;5116117;28;20859;-83
2021/08/10 11:56:34;;;;;;;3.77;3.43;;;;;;;;;;5115590;28;20449;-85
2021/08/10 11:59:02;;;;;;;3.57;3.27;;;;;;;;;;5115196;28;20433;-79
2021/08/10 12:01:31;;;;;;;4.10;3.30;;;;;;;;;;5115557;28;20998;-77
2021/08/10 12:04:08;;;;;;;6.87;5.00;;;;;;;;;;5115214;28;20445;-77
2021/08/10 12:06:36;;;;;;;7.23;5.07;;;;;;;;;;5115444;28;20425;-78
2021/08/10 12:09:05;;;;;;;5.03;4.63;;;;;;;;;;5114646;28;20527;-79
2021/08/10 12:11:34;;;;;;;6.10;5.53;;;;;;;;;;5115263;28;20469;-84
2021/08/10 12:14:14;;;;;;;6.03;5.43;;;;;;;;;;5114881;28;20438;-85
2021/08/10 12:16:57;;;;;;;6.97;5.60;;;;;;;;;;5116293;28;20436;-81
2021/08/10 12:19:34;;;;;;;6.90;5.53;;;;;;;;;;5115172;28;20430;-84
2021/08/10 12:22:03;;;;;;;6.27;5.67;;;;;;;;;;5114901;28;20513;-83
2021/08/10 12:24:31;;;;;;;5.40;4.90;;;;;;;;;;5114127;28;20480;-82
2021/08/10 12:27:01;;;;;;;5.43;4.77;;;;;;;;;;5114487;28;20810;-82
2021/08/10 12:29:36;;;;;;;7.10;4.40;;;;;;;;;;5115160;28;20434;-82
2021/08/10 12:32:03;;;;;;;5.13;4.27;;;;;;;;;;5114420;28;20465;-82
2021/08/10 12:34:31;;;;;;;4.80;4.27;;;;;;;;;;5115384;28;20533;-83
2021/08/10 12:36:58;;;;;;;7.00;4.60;;;;;;;;;;5114865;28;20843;-83
2021/08/10 12:39:26;;;;;;;5.83;4.30;;;;;;;;;;5113921;28;20446;-76
2021/08/10 12:41:55;;;;;;;7.03;3.80;;;;;;;;;;5113745;28;20446;-74
2021/08/10 12:44:26;;;;;;;5.97;4.53;;;;;;;;;;5113764;28;21009;-78
2021/08/10 12:46:55;;;;;;;5.10;3.77;;;;;;;;;;5114170;28;20448;-77
2021/08/10 12:49:32;;;;;;;7.33;4.00;;;;;;;;;;5113963;28;20804;-76
2021/08/10 12:52:01;;;;;;;4.57;4.17;;;;;;;;;;5114108;28;20764;-76
2021/08/10 12:54:29;;;;;;;5.30;3.83;;;;;;;;;;5113473;28;20474;-75
2021/08/10 12:56:57;;;;;;;4.80;4.30;;;;;;;;;;5114777;28;20447;-77
2021/08/10 12:59:44;;;;;;;4.80;4.30;;;;;;;;;;5114256;28;20435;-78
2021/08/10 13:02:12;;;;;;;9.40;4.10;;;;;;;;;;5113164;28;20449;-79
2021/08/10 13:04:40;;;;;;;4.50;4.10;;;;;;;;;;5113636;28;20450;-78
2021/08/10 13:07:14;;;;;;;5.03;3.40;;;;;;;;;;5114147;28;20435;-72
2021/08/10 13:09:49;;;;;;;4.17;3.30;;;;;;;;;;5114256;28;20435;-75
2021/08/10 13:12:16;;;;;;;4.90;3.40;;;;;;;;;;5114281;28;20748;-74
2021/08/10 13:14:56;;;;;;;3.53;3.17;;;;;;;;;;5113386;28;20442;-76
2021/08/10 13:17:31;;;;;;;4.27;3.27;;;;;;;;;;5100510;28;20534;-75
2021/08/10 13:20:09;;;;;;;3.57;3.27;;;;;;;;;;5113757;28;20438;-74
2021/08/10 13:22:43;;;;;;;4.33;2.93;;;;;;;;;;5112947;28;20970;-73
2021/08/10 13:25:11;;;;;;;4.97;3.70;;;;;;;;;;5113176;28;20941;-74
2021/08/10 13:27:39;;;;;;;4.30;3.20;;;;;;;;;;5113687;28;21001;-75
2021/08/10 13:30:18;;;;;;;5.10;4.47;;;;;;;;;;5113211;28;20531;-74
2021/08/10 13:32:45;;;;;;;7.07;3.67;;;;;;;;;;5113292;28;20439;-72
2021/08/10 13:35:12;;;;;;;3.43;3.13;;;;;;;;;;5113591;28;20535;-76
2021/08/10 13:37:39;;;;;;;4.37;3.90;;;;;;;;;;5116098;28;20444;-75
2021/08/10 13:40:13;;;;;;;4.10;3.70;;;;;;;;;;5117095;28;20451;-75
2021/08/10 13:42:40;;;;;;;3.67;3.37;;;;;;;;;;5117682;28;20430;-77
2021/08/10 13:45:09;;;;;;;4.60;4.07;;;;;;;;;;5117590;28;20439;-74
2021/08/10 13:47:36;;;;;;;4.53;3.80;;;;;;;;;;5097078;28;20478;-77
2021/08/10 13:50:04;;;;;;;3.77;3.40;;;;;;;;;;5096859;28;20439;-77
2021/08/10 13:52:31;;;;;;;3.50;3.20;;;;;;;;;;5096400;28;20440;-78
2021/08/10 13:54:59;;;;;;;3.57;3.27;;;;;;;;;;5097273;28;20520;-78
2021/08/10 13:57:26;;;;;;;5.63;3.83;;;;;;;;;;5096741;28;20533;-73
2021/08/10 13:59:53;;;;;;;4.37;3.90;;;;;;;;;;5096383;28;20444;-76
2021/08/10 14:02:22;;;;;;;4.20;3.60;;;;;;;;;;5096958;28;20534;-78
2021/08/10 14:04:50;;;;;;;4.40;3.67;;;;;;;;;;5096570;28;20930;-76
2021/08/10 14:07:18;;;;;;;3.70;3.23;;;;;;;;;;5096326;28;20451;-78
2021/08/10 14:09:45;;;;;;;7.00;3.53;;;;;;;;;;5095029;28;21103;-76
2021/08/10 14:12:13;;;;;;;7.97;3.80;;;;;;;;;;5095500;28;20538;-79
2021/08/10 14:14:40;;;;;;;3.87;3.50;;;;;;;;;;5096409;28;20542;-75
2021/08/10 14:17:07;;;;;;;3.60;3.30;;;;;;;;;;5096442;28;20454;-77
2021/08/10 14:19:36;;;;;;;3.00;2.70;;;;;;;;;;5096712;28;20444;-77
2021/08/10 14:22:03;;;;;;;3.83;3.43;;;;;;;;;;5095904;28;20803;-81
2021/08/10 14:24:31;;;;;;;4.87;3.63;;;;;;;;;;5096284;28;20534;-76
2021/08/10 14:27:00;;;;;;;9.80;4.40;;;;;;;;;;5095506;28;20503;-74
2021/08/10 14:29:27;;;;;;;3.53;3.30;;;;;;;;;;5095932;28;20570;-75
2021/08/10 14:31:55;;;;;;;9.07;3.47;;;;;;;;;;5095395;28;20445;-76
2021/08/10 14:34:22;;;;;;;3.80;3.40;;;;;;;;;;5095396;28;20930;-75
2021/08/10 14:36:51;;;;;;;3.70;3.20;;;;;;;;;;5095710;28;20525;-74
2021/08/10 14:39:19;;;;;;;4.70;4.20;;;;;;;;;;5095976;28;20442;-77
2021/08/10 14:41:46;;;;;;;4.70;3.77;;;;;;;;;;5095449;28;20459;-76
2021/08/10 14:44:13;;;;;;;4.47;3.37;;;;;;;;;;5095837;28;20937;-75
2021/08/10 14:46:43;;;;;;;3.87;3.27;;;;;;;;;;5095594;28;20519;-74
2021/08/10 14:49:11;;;;;;;4.43;3.37;;;;;;;;;;5094626;28;20478;-76
2021/08/10 14:51:38;;;;;;;7.10;3.40;;;;;;;;;;5095295;28;20443;-74
2021/08/10 14:54:07;;;;;;;3.00;2.70;;;;;;;;;;5094988;28;20894;-75